Accueil
METAR-TAF:

METAR-TAF

Aéroports :

Comté de Franklin, Vermont, États-Unis

latitude: 44-56-25N, longitude: 073-05-51W, altitude: 69 m

Observation

Le bulletin a été fait il y a 23 minutes, à 03:55 UTC
Vent 10 kt de sud avec des rafales jusqu'à 17 kt
Température 2°C
Humidité 93%
Pression 1015 hPa
Visibilité: 11.3 km
Nuages fragmentés à une hauteur de 2000 ft
Ciel couvert à une hauteur de 2400 ft

METAR: KFSO 240355Z AUTO 19010G17KT 7SM BKN020 OVC024 02/01 A2997 RMK AO2 T00230011

Heure: 23:18 (04:18 UTC)


TAF: absent

Observations et prévisions météorologiques de plus de 4000 aéroports (messages METAR et TAF).

Les stations disponibles sont représentées par des disques jaunes et rouges sur la carte.

Passer la souris dessus pour voir le nom de la station.

Cliquer dessus pour voir les observations et prévisions météorologiques.

Pour changer de carte: cliquez sur les boutons verts avec une croix noire pour zoomer, sur le bouton vert avec un tiret pour effectuer un zoom arrière, ou sur les flèches vertes pour les cartes adjacentes.


METAR-TAF: